Time;durP1;ratioP1;P1;durP2;ratioP2;P2;SDS_P1;SDS_P2;PMS_P1;PMS_P2;Temp;Humidity;BMP_temperature;BMP_pressure;BME280_temperature;BME280_humidity;BME280_pressure;Samples;Min_cycle;Max_cycle;Signal;HPM_P1;HPM_P2
2021/06/24 00:00:53;;;;;;;16.87;11.10;;;;;;;27.07;61.04;100116.13;5093915;28;20043;-71
2021/06/24 00:03:25;;;;;;;20.13;10.75;;;;;;;26.97;61.14;100121.06;5093649;28;20040;-70
2021/06/24 00:05:54;;;;;;;19.10;10.70;;;;;;;26.95;61.94;100128.66;5093722;28;20036;-71
2021/06/24 00:08:26;;;;;;;19.25;11.07;;;;;;;26.93;61.32;100126.13;5093477;28;20048;-71
2021/06/24 00:10:59;;;;;;;16.48;11.50;;;;;;;26.85;61.89;100128.16;5093678;28;20044;-72
2021/06/24 00:13:29;;;;;;;19.40;11.45;;;;;;;26.63;62.68;100125.47;5093634;28;20044;-73
2021/06/24 00:16:00;;;;;;;22.17;11.65;;;;;;;26.54;63.49;100126.69;5093873;28;20044;-72
2021/06/24 00:18:29;;;;;;;21.63;11.98;;;;;;;26.48;63.29;100122.84;5093088;28;20074;-72
2021/06/24 00:20:57;;;;;;;17.75;11.60;;;;;;;26.73;62.27;100125.13;5093426;28;20060;-72
2021/06/24 00:23:26;;;;;;;16.80;10.70;;;;;;;26.77;62.33;100123.69;5092446;28;20387;-73
2021/06/24 00:25:55;;;;;;;18.88;10.98;;;;;;;26.68;62.62;100131.22;5093479;28;20113;-73
2021/06/24 00:28:27;;;;;;;16.23;10.18;;;;;;;26.71;62.66;100128.06;5093344;28;20046;-75
2021/06/24 00:30:58;;;;;;;16.98;10.80;;;;;;;26.71;62.34;100124.47;5093639;28;20044;-74
2021/06/24 00:33:27;;;;;;;20.63;11.00;;;;;;;26.81;62.38;100128.56;5093096;28;20105;-74
2021/06/24 00:35:56;;;;;;;19.80;11.30;;;;;;;26.65;63.01;100123.41;5093684;28;20410;-72
2021/06/24 00:38:25;;;;;;;18.33;10.68;;;;;;;26.51;62.93;100133.38;5093097;28;20047;-75
2021/06/24 00:40:53;;;;;;;17.50;10.90;;;;;;;26.34;63.95;100122.91;5093053;28;20040;-73
2021/06/24 00:43:23;;;;;;;19.65;11.48;;;;;;;26.17;64.70;100125.09;5092836;28;20066;-74
2021/06/24 00:45:51;;;;;;;19.10;11.20;;;;;;;26.18;64.65;100122.16;5093200;28;20075;-75
2021/06/24 00:48:21;;;;;;;18.45;10.75;;;;;;;25.98;65.57;100120.28;5093235;28;20040;-76
2021/06/24 00:50:49;;;;;;;21.02;11.82;;;;;;;25.90;66.25;100113.06;5093267;28;20048;-77
2021/06/24 00:53:17;;;;;;;16.73;11.13;;;;;;;25.89;66.21;100117.69;5093205;28;20509;-77
2021/06/24 00:55:47;;;;;;;20.27;11.40;;;;;;;25.93;66.16;100107.19;5093242;28;20477;-77
2021/06/24 00:58:17;;;;;;;21.17;11.73;;;;;;;26.08;65.06;100102.50;5093268;28;20040;-77
2021/06/24 01:00:47;;;;;;;20.55;11.55;;;;;;;26.33;64.11;100102.91;5092860;28;20074;-75
2021/06/24 01:03:16;;;;;;;19.90;11.77;;;;;;;26.19;65.29;100107.44;5093045;28;20047;-78
2021/06/24 01:05:46;;;;;;;22.45;11.27;;;;;;;26.25;65.03;100109.41;5092224;28;20044;-75
2021/06/24 01:08:16;;;;;;;20.52;11.30;;;;;;;26.38;64.59;100108.69;5093241;28;20496;-75
2021/06/24 01:10:45;;;;;;;20.20;11.85;;;;;;;26.19;65.25;100107.44;5092565;28;20044;-76
2021/06/24 01:13:15;;;;;;;18.67;12.10;;;;;;;26.06;65.94;100110.06;5092820;28;20509;-76
2021/06/24 01:15:43;;;;;;;17.40;11.25;;;;;;;26.06;65.68;100112.81;5092546;28;20096;-74
2021/06/24 01:18:12;;;;;;;17.95;11.38;;;;;;;26.13;65.55;100105.47;5092995;28;20383;-75
2021/06/24 01:20:40;;;;;;;20.90;11.65;;;;;;;26.19;65.25;100110.19;5092467;28;20048;-74
2021/06/24 01:23:10;;;;;;;17.73;11.27;;;;;;;26.19;65.44;100106.59;5091461;28;20048;-76
2021/06/24 01:25:40;;;;;;;18.45;11.70;;;;;;;25.89;66.95;100111.38;5092476;28;20456;-73
2021/06/24 01:28:10;;;;;;;16.65;11.23;;;;;;;25.72;67.76;100116.22;5092584;28;20130;-73
2021/06/24 01:30:41;;;;;;;21.00;12.27;;;;;;;25.76;68.18;100117.53;5092649;28;20051;-74
2021/06/24 01:33:11;;;;;;;20.10;11.90;;;;;;;25.92;67.14;100116.44;5093741;28;20085;-74
2021/06/24 01:35:40;;;;;;;20.77;11.85;;;;;;;25.94;67.03;100114.34;5096613;28;20065;-75
2021/06/24 01:38:10;;;;;;;19.20;12.43;;;;;;;25.93;67.05;100112.66;5096648;28;20040;-75
2021/06/24 01:40:40;;;;;;;16.45;11.35;;;;;;;25.80;67.70;100109.81;5096153;28;20071;-73
2021/06/24 01:43:08;;;;;;;20.25;12.10;;;;;;;25.71;67.81;100114.53;5096749;28;20438;-73
2021/06/24 01:45:45;;;;;;;23.30;12.57;;;;;;;25.56;68.90;100117.28;5096363;28;20136;-72
2021/06/24 01:48:14;;;;;;;21.15;12.77;;;;;;;25.54;69.08;100122.09;5096655;28;20398;-76
2021/06/24 01:50:44;;;;;;;19.73;11.98;;;;;;;25.57;68.63;100124.41;5096395;28;20040;-76
2021/06/24 01:53:12;;;;;;;21.02;13.48;;;;;;;25.36;69.58;100117.03;5096745;28;20048;-75
2021/06/24 01:55:42;;;;;;;25.23;13.50;;;;;;;25.46;69.27;100111.28;5096219;28;20436;-75
2021/06/24 01:58:19;;;;;;;17.90;12.48;;;;;;;25.59;68.72;100126.97;5096405;28;20047;-75
2021/06/24 02:00:48;;;;;;;22.63;12.30;;;;;;;25.63;68.51;100120.94;5096054;28;20072;-77
2021/06/24 02:03:17;;;;;;;20.02;13.07;;;;;;;25.37;70.05;100126.06;5096127;28;20052;-77
2021/06/24 02:05:49;;;;;;;19.60;12.88;;;;;;;25.38;69.67;100120.44;5095604;28;20071;-74
2021/06/24 02:08:20;;;;;;;20.23;12.88;;;;;;;25.29;70.06;100104.38;5096146;28;20131;-74
2021/06/24 02:10:54;;;;;;;24.48;13.35;;;;;;;25.17;70.82;100094.94;5096073;28;20048;-72
2021/06/24 02:13:22;;;;;;;20.83;12.73;;;;;;;25.13;71.30;100104.56;5096218;28;20087;-72
2021/06/24 02:15:50;;;;;;;20.52;12.80;;;;;;;25.10;71.04;100106.66;5095805;28;20059;-73
2021/06/24 02:18:19;;;;;;;24.42;13.20;;;;;;;25.11;71.21;100102.88;5096093;28;20064;-74
2021/06/24 02:20:50;;;;;;;21.70;12.95;;;;;;;25.05;71.38;100111.81;5095584;28;20059;-74
2021/06/24 02:23:18;;;;;;;19.45;13.18;;;;;;;25.01;71.66;100110.47;5096122;28;20047;-76
2021/06/24 02:25:47;;;;;;;20.70;13.57;;;;;;;24.92;72.06;100121.69;5096277;28;20409;-76
2021/06/24 02:28:16;;;;;;;18.15;12.63;;;;;;;25.01;71.72;100117.81;5097514;28;20044;-76
2021/06/24 02:30:44;;;;;;;21.50;13.25;;;;;;;24.87;72.52;100116.78;5096486;28;20051;-77
2021/06/24 02:33:13;;;;;;;17.33;12.98;;;;;;;24.80;73.01;100113.09;5096010;28;20530;-75
2021/06/24 02:35:50;;;;;;;20.48;13.50;;;;;;;24.69;73.47;100116.28;5095343;28;20386;-74
2021/06/24 02:38:19;;;;;;;21.85;14.45;;;;;;;24.77;72.95;100121.66;5095682;28;20044;-77
2021/06/24 02:40:47;;;;;;;19.20;14.18;;;;;;;24.78;73.06;100112.44;5095054;28;20796;-76
2021/06/24 02:43:18;;;;;;;21.33;14.15;;;;;;;24.83;72.68;100105.41;5095367;28;20044;-75
2021/06/24 02:45:46;;;;;;;24.20;13.57;;;;;;;24.81;72.77;100096.56;5094519;28;20047;-74
2021/06/24 02:48:14;;;;;;;21.80;13.45;;;;;;;24.74;73.06;100084.69;5095504;28;20048;-74
2021/06/24 02:50:43;;;;;;;20.98;13.77;;;;;;;24.78;73.22;100091.47;5094949;28;20162;-74
2021/06/24 02:53:11;;;;;;;21.33;13.65;;;;;;;24.76;72.93;100095.41;5095494;28;20047;-74
2021/06/24 02:55:41;;;;;;;19.90;14.18;;;;;;;24.78;72.88;100102.38;5094692;28;20036;-75
2021/06/24 02:58:09;;;;;;;29.08;14.77;;;;;;;24.65;73.91;100101.34;5095282;28;20050;-74
2021/06/24 03:00:39;;;;;;;20.77;14.30;;;;;;;24.63;73.88;100104.25;5094720;28;20043;-74
2021/06/24 03:03:07;;;;;;;18.27;14.07;;;;;;;24.63;74.14;100097.97;5094672;28;20489;-72
2021/06/24 03:05:35;;;;;;;18.92;14.15;;;;;;;24.94;72.59;100095.03;5094578;28;20040;-74
2021/06/24 03:08:04;;;;;;;23.85;13.77;;;;;;;24.92;72.81;100103.44;5094835;28;20040;-76
2021/06/24 03:10:33;;;;;;;23.65;14.30;;;;;;;24.85;73.08;100097.03;5094534;28;20048;-74
2021/06/24 03:13:01;;;;;;;20.73;13.27;;;;;;;24.74;73.48;100095.63;5094973;28;20040;-76
2021/06/24 03:15:32;;;;;;;25.73;13.95;;;;;;;24.82;72.92;100100.97;5094700;28;20040;-76
2021/06/24 03:18:02;;;;;;;17.70;13.77;;;;;;;24.97;72.27;100106.41;5094751;28;20126;-76
2021/06/24 03:20:30;;;;;;;24.48;14.10;;;;;;;24.86;72.92;100115.09;5094438;28;20050;-77
2021/06/24 03:23:00;;;;;;;20.38;13.27;;;;;;;24.74;73.79;100116.59;5094821;28;20462;-77
2021/06/24 03:25:29;;;;;;;20.27;13.65;;;;;;;24.71;74.08;100106.06;5094449;28;20098;-76
2021/06/24 03:27:58;;;;;;;18.42;13.55;;;;;;;24.88;73.51;100109.44;5094714;28;20494;-77
2021/06/24 03:30:26;;;;;;;22.13;14.23;;;;;;;24.93;73.02;100110.56;5094690;28;20123;-75
2021/06/24 03:32:55;;;;;;;20.02;14.05;;;;;;;25.15;72.60;100108.78;5093088;28;20056;-74
2021/06/24 03:35:25;;;;;;;20.60;13.23;;;;;;;25.17;72.05;100111.31;5094283;28;20429;-75
2021/06/24 03:37:54;;;;;;;19.50;13.82;;;;;;;25.34;71.84;100118.28;5094309;28;20044;-75
2021/06/24 03:40:22;;;;;;;21.15;12.95;;;;;;;25.59;70.84;100136.03;5094190;28;20126;-74
2021/06/24 03:42:51;;;;;;;23.60;12.60;;;;;;;25.69;70.41;100132.97;5093838;28;20071;-76
2021/06/24 03:45:20;;;;;;;21.13;13.10;;;;;;;25.91;69.08;100123.78;5094395;28;20090;-76
2021/06/24 03:47:48;;;;;;;19.05;12.48;;;;;;;26.12;68.25;100122.09;5093728;28;20040;-76
2021/06/24 03:50:16;;;;;;;20.02;12.93;;;;;;;26.40;67.06;100124.88;5094367;28;20048;-76
2021/06/24 03:52:46;;;;;;;20.83;12.70;;;;;;;26.37;66.54;100133.47;5094039;28;20044;-76
2021/06/24 03:55:16;;;;;;;23.35;11.98;;;;;;;26.70;65.52;100139.22;5094405;28;20044;-75
2021/06/24 03:58:04;;;;;;;19.08;12.02;;;;;;;26.94;64.73;100149.72;5093011;28;20048;-73
2021/06/24 04:00:34;;;;;;;19.38;12.15;;;;;;;27.20;63.40;100143.53;5093782;28;20585;-72
2021/06/24 04:03:03;;;;;;;19.10;11.40;;;;;;;27.31;62.90;100143.00;5093801;28;20044;-72
2021/06/24 04:05:31;;;;;;;23.95;11.90;;;;;;;27.31;63.08;100145.72;5094061;28;20047;-72
2021/06/24 04:08:03;;;;;;;21.58;11.68;;;;;;;27.56;62.54;100137.81;5093692;28;20055;-71
2021/06/24 04:10:31;;;;;;;17.35;11.05;;;;;;;28.13;60.24;100138.41;5093647;28;20076;-70
2021/06/24 04:13:00;;;;;;;17.90;10.35;;;;;;;28.38;59.07;100145.00;5093690;28;20072;-72
2021/06/24 04:15:29;;;;;;;17.63;10.90;;;;;;;28.06;59.98;100140.28;5093632;28;20383;-70
2021/06/24 04:18:02;;;;;;;17.13;11.15;;;;;;;28.17;59.98;100135.00;5093934;28;20048;-73
2021/06/24 04:20:32;;;;;;;20.58;11.57;;;;;;;28.62;58.51;100132.53;5093557;28;20119;-74
2021/06/24 04:23:03;;;;;;;19.10;10.65;;;;;;;29.10;56.51;100135.00;5093231;28;20070;-75
2021/06/24 04:25:31;;;;;;;17.23;10.68;;;;;;;29.06;56.33;100126.38;5093812;28;20047;-74
2021/06/24 04:28:01;;;;;;;18.65;10.80;;;;;;;29.73;54.57;100128.88;5093517;28;20047;-73
2021/06/24 04:30:29;;;;;;;18.08;10.93;;;;;;;29.72;54.72;100138.16;5093280;28;20044;-73
2021/06/24 04:32:59;;;;;;;17.75;10.68;;;;;;;29.87;54.45;100133.22;5092932;28;20059;-76
2021/06/24 04:35:28;;;;;;;19.15;10.35;;;;;;;30.19;53.67;100129.41;5093319;28;20063;-74
2021/06/24 04:37:59;;;;;;;19.00;10.15;;;;;;;30.23;52.73;100134.47;5092832;28;20044;-75
2021/06/24 04:40:28;;;;;;;18.48;10.32;;;;;;;30.40;52.47;100127.34;5093375;28;20063;-74
2021/06/24 04:42:57;;;;;;;17.20;10.15;;;;;;;30.67;51.81;100133.47;5092943;28;20047;-76
2021/06/24 04:45:27;;;;;;;16.95;9.93;;;;;;;31.03;50.76;100129.94;5093375;28;20118;-73
2021/06/24 04:47:56;;;;;;;18.30;9.95;;;;;;;30.93;50.70;100130.47;5092918;28;20050;-78
2021/06/24 04:50:25;;;;;;;18.73;10.00;;;;;;;31.17;49.33;100130.63;5093186;28;20478;-74
2021/06/24 04:52:53;;;;;;;25.35;10.40;;;;;;;31.36;49.42;100124.06;5093065;28;20043;-74
2021/06/24 04:55:23;;;;;;;17.60;10.30;;;;;;;31.28;49.12;100124.41;5093178;28;20135;-73
2021/06/24 04:57:53;;;;;;;18.00;10.20;;;;;;;31.56;48.78;100126.59;5095839;28;20044;-73
2021/06/24 05:00:22;;;;;;;18.20;9.95;;;;;;;31.76;47.79;100129.94;5092402;28;20051;-72
2021/06/24 05:02:50;;;;;;;17.27;9.90;;;;;;;32.30;46.64;100128.06;5092522;28;20123;-71
2021/06/24 05:05:19;;;;;;;16.48;9.30;;;;;;;32.47;46.20;100134.56;5091554;28;20578;-71
2021/06/24 05:07:47;;;;;;;16.83;9.32;;;;;;;32.93;44.88;100143.16;5092393;28;20486;-71
2021/06/24 05:10:15;;;;;;;19.40;9.35;;;;;;;32.82;45.63;100139.28;5092875;28;20044;-71
2021/06/24 05:12:43;;;;;;;16.50;9.05;;;;;;;32.99;44.80;100143.00;5092413;28;20043;-72
2021/06/24 05:15:15;;;;;;;19.55;9.73;;;;;;;32.64;45.88;100142.16;5092931;28;20367;-71
2021/06/24 05:17:43;;;;;;;15.05;8.57;;;;;;;32.44;45.98;100143.34;5092525;28;20048;-71
2021/06/24 05:20:13;;;;;;;20.70;9.35;;;;;;;32.77;45.89;100139.16;5092878;28;20126;-69
2021/06/24 05:22:41;;;;;;;16.02;8.65;;;;;;;33.24;43.66;100141.91;5092272;28;20047;-72
2021/06/24 05:25:11;;;;;;;18.38;8.48;;;;;;;33.92;42.01;100134.75;5093005;28;20055;-69
2021/06/24 05:27:40;;;;;;;16.80;8.80;;;;;;;33.67;42.42;100124.00;5090505;28;20051;-71
2021/06/24 05:30:09;;;;;;;14.40;8.82;;;;;;;34.29;41.43;100122.16;5092137;28;20047;-71
2021/06/24 05:32:40;;;;;;;17.30;8.98;;;;;;;33.81;42.46;100122.63;5092585;28;20036;-70
2021/06/24 05:35:11;;;;;;;18.60;8.75;;;;;;;34.37;41.23;100129.19;5092413;28;20105;-69
2021/06/24 05:37:39;;;;;;;21.52;9.45;;;;;;;34.48;40.92;100131.06;5092302;28;20080;-70
2021/06/24 05:40:09;;;;;;;16.77;8.52;;;;;;;34.41;40.91;100133.16;5092658;28;20086;-69
2021/06/24 05:42:37;;;;;;;18.23;9.18;;;;;;;34.58;40.74;100141.47;5092487;28;20040;-74
2021/06/24 05:45:06;;;;;;;15.55;9.30;;;;;;;35.30;40.19;100135.88;5092753;28;20039;-69
2021/06/24 05:47:35;;;;;;;19.77;9.65;;;;;;;34.77;39.63;100140.13;5092608;28;20398;-69
2021/06/24 05:50:06;;;;;;;18.67;9.75;;;;;;;34.78;40.91;100138.19;5092322;28;20044;-69
2021/06/24 05:52:35;;;;;;;16.45;9.48;;;;;;;35.37;39.59;100131.00;5092462;28;20044;-69
2021/06/24 05:55:04;;;;;;;18.33;9.27;;;;;;;35.34;38.36;100127.91;5092702;28;20070;-69
2021/06/24 05:57:32;;;;;;;16.13;9.20;;;;;;;34.99;39.73;100131.88;5092426;28;20033;-69
2021/06/24 06:00:00;;;;;;;20.60;9.73;;;;;;;35.05;39.51;100130.00;5092386;28;20494;-69
2021/06/24 06:02:29;;;;;;;17.98;9.57;;;;;;;35.24;39.31;100123.06;5092661;28;20066;-69
2021/06/24 06:04:57;;;;;;;22.40;10.23;;;;;;;35.36;39.31;100126.53;5092180;28;20040;-72
2021/06/24 06:07:26;;;;;;;19.67;9.40;;;;;;;35.52;39.06;100122.91;5092668;28;20139;-71
2021/06/24 06:09:54;;;;;;;19.98;9.52;;;;;;;34.84;40.17;100128.81;5091930;28;20082;-72
2021/06/24 06:12:23;;;;;;;23.77;9.55;;;;;;;35.91;37.87;100124.75;5092479;28;20551;-69
2021/06/24 06:14:51;;;;;;;18.98;9.48;;;;;;;35.81;39.20;100137.38;5092058;28;20041;-72
2021/06/24 06:17:19;;;;;;;25.23;9.98;;;;;;;36.21;38.64;100138.91;5092978;28;20575;-74
2021/06/24 06:19:49;;;;;;;20.80;9.20;;;;;;;36.06;37.83;100136.81;5092336;28;20048;-75
2021/06/24 06:22:17;;;;;;;22.77;8.68;;;;;;;36.06;37.60;100131.25;5095006;28;20097;-73
2021/06/24 06:24:47;;;;;;;17.90;9.13;;;;;;;36.13;37.63;100136.59;5095472;28;20097;-74
2021/06/24 06:27:15;;;;;;;19.48;8.65;;;;;;;36.62;36.45;100133.72;5095892;28;20044;-72
2021/06/24 06:29:43;;;;;;;21.58;9.15;;;;;;;37.14;35.95;100138.50;5095607;28;20047;-74
2021/06/24 06:32:12;;;;;;;23.17;9.00;;;;;;;36.86;36.66;100135.00;5095763;28;20123;-74
2021/06/24 06:34:40;;;;;;;18.45;8.85;;;;;;;37.18;35.61;100136.88;5095726;28;20555;-72
2021/06/24 06:37:08;;;;;;;20.50;9.55;;;;;;;37.41;34.82;100130.03;5095792;28;20145;-74
2021/06/24 06:39:40;;;;;;;;;;;;;;;37.35;35.37;100126.41;5096083;28;20044;-74
2021/06/24 06:42:10;;;;;;;23.80;9.40;;;;;;;37.02;35.76;100132.31;5094482;28;19965;-74
2021/06/24 06:44:38;;;;;;;14.63;9.07;;;;;;;37.04;35.53;100130.09;5095369;28;20071;-73
2021/06/24 06:47:06;;;;;;;17.30;8.95;;;;;;;36.72;36.25;100128.22;5095749;28;20074;-74
2021/06/24 06:49:34;;;;;;;15.60;8.60;;;;;;;36.94;36.89;100131.72;5095862;28;20394;-72
2021/06/24 06:52:03;;;;;;;18.02;8.95;;;;;;;36.89;35.60;100128.94;5095270;28;20174;-71
2021/06/24 06:54:31;;;;;;;18.55;8.85;;;;;;;36.99;36.59;100132.88;5095335;28;20040;-71
2021/06/24 06:56:59;;;;;;;17.17;8.77;;;;;;;36.67;36.53;100125.41;5094981;28;20044;-74
2021/06/24 06:59:30;;;;;;;19.33;8.75;;;;;;;36.09;38.45;100124.34;5095243;28;20052;-73
2021/06/24 07:02:08;;;;;;;16.63;9.13;;;;;;;35.57;38.07;100133.19;5095503;28;20036;-73
2021/06/24 07:04:37;;;;;;;17.58;9.30;;;;;;;35.36;38.22;100131.25;5094851;28;20040;-77
2021/06/24 07:07:06;;;;;;;20.40;9.40;;;;;;;35.17;39.25;100131.56;5094802;28;20102;-73
2021/06/24 07:09:34;;;;;;;17.33;8.85;;;;;;;35.10;39.48;100135.63;5094744;28;20051;-73
2021/06/24 07:12:05;;;;;;;21.02;9.27;;;;;;;34.79;39.67;100135.16;5094449;28;20040;-73
2021/06/24 07:14:36;;;;;;;17.15;8.85;;;;;;;34.59;39.64;100138.44;5095055;28;20043;-73
2021/06/24 07:17:04;;;;;;;20.02;8.80;;;;;;;34.48;40.49;100142.16;5094933;28;20036;-73
2021/06/24 07:19:33;;;;;;;19.17;9.60;;;;;;;34.44;39.95;100140.94;5094805;28;20051;-73
2021/06/24 07:22:02;;;;;;;18.17;9.35;;;;;;;34.49;40.71;100131.91;5094545;28;20048;-73
2021/06/24 07:24:30;;;;;;;20.40;8.93;;;;;;;34.49;39.93;100141.06;5094645;28;20413;-73
2021/06/24 07:26:59;;;;;;;20.85;9.15;;;;;;;34.62;39.96;100131.56;5094511;28;20094;-73
2021/06/24 07:29:27;;;;;;;17.27;7.90;;;;;;;34.86;37.88;100127.50;5094676;28;20044;-73
2021/06/24 07:31:57;;;;;;;13.35;7.13;;;;;;;35.07;36.58;100134.19;5094107;28;20047;-72
2021/06/24 07:34:25;;;;;;;18.73;8.15;;;;;;;34.66;36.99;100127.19;5094586;28;20048;-72
2021/06/24 07:36:54;;;;;;;13.70;7.63;;;;;;;34.66;36.43;100135.50;5093925;28;20044;-73
2021/06/24 07:39:22;;;;;;;14.68;6.88;;;;;;;34.71;36.53;100133.63;5094406;28;20497;-72
2021/06/24 07:41:51;;;;;;;15.57;7.55;;;;;;;34.88;36.74;100130.88;5094100;28;20078;-72
2021/06/24 07:44:19;;;;;;;14.45;7.28;;;;;;;34.48;37.59;100139.38;5094376;28;20126;-72
2021/06/24 07:46:47;;;;;;;13.25;7.72;;;;;;;34.44;38.38;100124.34;5094152;28;20089;-72
2021/06/24 07:49:17;;;;;;;13.38;7.50;;;;;;;34.40;37.32;100131.47;5094122;28;20044;-72
2021/06/24 07:51:45;;;;;;;17.73;7.50;;;;;;;34.45;37.11;100137.09;5093962;28;20051;-73
2021/06/24 07:54:15;;;;;;;14.75;6.88;;;;;;;34.61;36.40;100127.09;5094570;28;20136;-73
2021/06/24 07:56:43;;;;;;;15.15;6.82;;;;;;;34.55;36.13;100120.66;5094122;28;20067;-73
2021/06/24 07:59:15;;;;;;;17.27;6.45;;;;;;;34.79;35.75;100129.59;5094103;28;20412;-73
2021/06/24 08:01:44;;;;;;;19.95;7.65;;;;;;;34.98;35.31;100130.19;5093973;28;20044;-73
2021/06/24 08:04:12;;;;;;;20.33;7.18;;;;;;;35.11;34.97;100123.44;5094365;28;20040;-73
2021/06/24 08:06:42;;;;;;;13.32;7.25;;;;;;;35.02;34.74;100125.81;5093773;28;20060;-73
2021/06/24 08:09:13;;;;;;;16.33;7.53;;;;;;;34.94;35.50;100129.03;5093929;28;20063;-72
2021/06/24 08:11:42;;;;;;;16.95;7.78;;;;;;;34.64;36.49;100121.88;5093966;28;20496;-72
2021/06/24 08:14:10;;;;;;;18.10;7.10;;;;;;;34.48;35.96;100124.69;5093522;28;20040;-72
2021/06/24 08:16:39;;;;;;;17.98;6.80;;;;;;;34.51;36.21;100113.94;5093625;28;20048;-72
2021/06/24 08:19:07;;;;;;;13.20;6.35;;;;;;;34.59;34.26;100109.91;5093428;28;20047;-72
2021/06/24 08:21:36;;;;;;;13.60;6.65;;;;;;;34.64;35.33;100105.28;5093578;28;20040;-72
2021/06/24 08:24:06;;;;;;;17.67;7.28;;;;;;;34.84;36.14;100099.22;5093345;28;20044;-72
2021/06/24 08:26:34;;;;;;;14.15;6.75;;;;;;;35.04;35.98;100100.63;5093993;28;20036;-72
2021/06/24 08:29:03;;;;;;;11.23;6.32;;;;;;;34.65;35.21;100104.22;5093375;28;20052;-72
2021/06/24 08:31:31;;;;;;;13.50;5.80;;;;;;;34.77;34.26;100101.31;5093889;28;20048;-72
2021/06/24 08:34:00;;;;;;;13.95;5.60;;;;;;;34.95;32.37;100108.53;5093297;28;20421;-72
2021/06/24 08:36:28;;;;;;;11.73;5.20;;;;;;;34.99;31.43;100109.69;5093451;28;20497;-72
2021/06/24 08:38:56;;;;;;;15.20;5.40;;;;;;;35.21;31.73;100102.22;5093137;28;20448;-72
2021/06/24 08:41:26;;;;;;;15.77;5.00;;;;;;;35.15;32.53;100103.28;5093268;28;20171;-72
2021/06/24 08:43:54;;;;;;;14.35;5.80;;;;;;;35.16;32.63;100104.94;5092674;28;20047;-72
2021/06/24 08:46:26;;;;;;;10.02;4.85;;;;;;;34.92;32.26;100100.72;5093197;28;20047;-72
2021/06/24 08:48:55;;;;;;;15.05;5.75;;;;;;;34.95;32.47;100108.53;5093058;28;20398;-72
2021/06/24 08:51:23;;;;;;;15.57;5.82;;;;;;;35.11;32.44;100104.88;5093291;28;20394;-72
2021/06/24 08:53:52;;;;;;;10.27;5.55;;;;;;;35.26;31.45;100101.47;5092817;28;20055;-73
2021/06/24 08:56:20;;;;;;;12.85;6.15;;;;;;;35.00;32.39;100094.75;5093279;28;20060;-72
2021/06/24 08:58:52;;;;;;;17.85;5.53;;;;;;;35.22;30.63;100092.81;5091932;28;20047;-75
2021/06/24 09:01:21;;;;;;;16.13;5.90;;;;;;;35.32;31.90;100091.25;5093364;28;20509;-72
2021/06/24 09:03:53;;;;;;;13.45;5.55;;;;;;;35.31;31.42;100092.34;5093203;28;20054;-72
2021/06/24 09:06:22;;;;;;;14.27;5.22;;;;;;;35.47;31.73;100094.25;5092832;28;20044;-71
2021/06/24 09:08:53;;;;;;;15.70;5.47;;;;;;;35.61;30.00;100078.88;5093121;28;20044;-74
2021/06/24 09:11:28;;;;;;;8.88;4.57;;;;;;;35.87;29.36;100080.00;5093242;28;20048;-71
2021/06/24 09:14:04;;;;;;;12.57;4.50;;;;;;;35.79;28.39;100080.44;5092802;28;20128;-71
2021/06/24 09:16:34;;;;;;;14.85;4.72;;;;;;;35.94;28.21;100088.13;5093096;28;20375;-72
2021/06/24 09:19:19;;;;;;;15.65;4.78;;;;;;;36.00;28.42;100087.91;5093075;28;20044;-73
2021/06/24 09:21:56;;;;;;;11.15;4.22;;;;;;;36.00;28.04;100087.06;5093174;28;20128;-73
2021/06/24 09:24:30;;;;;;;10.23;4.07;;;;;;;35.95;28.29;100096.19;5092804;28;20036;-71
2021/06/24 09:27:00;;;;;;;13.65;4.55;;;;;;;35.90;27.29;100087.78;5092636;28;20043;-73
2021/06/24 09:29:33;;;;;;;9.90;3.72;;;;;;;36.11;27.78;100080.53;5092873;28;20391;-73
2021/06/24 09:32:03;;;;;;;;;;;;;;;36.06;28.22;100080.47;5092879;28;20063;-71
2021/06/24 09:34:31;;;;;;;11.35;4.40;;;;;;;36.03;27.82;100076.28;5092989;28;19924;-71
2021/06/24 09:37:01;;;;;;;11.68;4.70;;;;;;;35.96;28.87;100075.66;5092578;28;20486;-73
2021/06/24 09:39:34;;;;;;;11.65;4.28;;;;;;;36.10;29.08;100065.81;5092751;28;20101;-73
2021/06/24 09:42:04;;;;;;;;;;;;;;;36.12;28.88;100080.25;5092942;28;20036;-72
2021/06/24 09:44:35;;;;;;;15.32;4.55;;;;;;;36.14;27.86;100077.19;5092732;28;19927;-72
2021/06/24 09:47:16;;;;;;;11.95;4.47;;;;;;;36.23;27.84;100058.94;5092698;28;20055;-71
2021/06/24 09:49:56;;;;;;;12.13;4.32;;;;;;;36.33;27.38;100063.75;5093073;28;20032;-71
2021/06/24 09:52:25;;;;;;;13.50;4.25;;;;;;;36.34;26.19;100049.59;5092730;28;20044;-73
2021/06/24 09:55:03;;;;;;;13.07;4.10;;;;;;;36.42;26.29;100062.19;5093115;28;20044;-73
2021/06/24 09:57:31;;;;;;;12.85;4.18;;;;;;;36.31;26.06;100061.25;5096587;28;20391;-71
2021/06/24 10:00:20;;;;;;;15.77;4.78;;;;;;;36.27;27.21;100054.53;5096121;28;20490;-73
2021/06/24 10:03:04;;;;;;;17.17;4.47;;;;;;;36.31;27.37;100046.53;5096724;28;20097;-73
2021/06/24 10:05:34;;;;;;;13.15;4.07;;;;;;;36.37;27.43;100037.13;5095107;28;20394;-73
2021/06/24 10:08:03;;;;;;;15.70;4.20;;;;;;;36.37;26.87;100035.19;5096341;28;20052;-73
2021/06/24 10:10:31;;;;;;;12.77;4.28;;;;;;;36.61;26.34;100032.84;5096238;28;20415;-73
2021/06/24 10:13:00;;;;;;;12.43;4.15;;;;;;;36.59;26.80;100034.25;5095890;28;20051;-73
2021/06/24 10:15:30;;;;;;;10.43;3.97;;;;;;;36.59;26.51;100012.03;5096370;28;20044;-72
2021/06/24 10:17:59;;;;;;;16.13;4.40;;;;;;;36.59;27.30;100007.31;5095864;28;20040;-71
2021/06/24 10:20:31;;;;;;;14.70;4.45;;;;;;;36.54;26.94;100004.47;5096055;28;20478;-72
2021/06/24 10:23:08;;;;;;;14.00;4.75;;;;;;;36.51;26.89;100018.91;5095877;28;20055;-73
2021/06/24 10:25:38;;;;;;;15.75;5.15;;;;;;;36.49;27.00;100011.97;5095964;28;20044;-73
2021/06/24 10:28:07;;;;;;;15.40;4.78;;;;;;;36.59;27.06;100009.25;5094668;28;20135;-71
2021/06/24 10:30:43;;;;;;;16.70;4.97;;;;;;;36.63;27.07;100013.13;5095767;28;20047;-71
2021/06/24 10:33:15;;;;;;;17.23;5.07;;;;;;;36.59;27.08;100007.31;5095542;28;20051;-71
2021/06/24 10:35:48;;;;;;;14.88;4.90;;;;;;;36.72;26.89;100011.53;5096054;28;20039;-73
2021/06/24 10:38:17;;;;;;;18.35;5.57;;;;;;;36.80;26.87;100013.78;5095277;28;20086;-73
2021/06/24 10:40:55;;;;;;;16.67;5.28;;;;;;;36.79;26.32;100003.78;5095663;28;20048;-72
2021/06/24 10:43:24;;;;;;;15.85;5.03;;;;;;;36.89;26.36;99995.53;5095880;28;20075;-72
2021/06/24 10:46:13;;;;;;;15.07;5.10;;;;;;;36.72;26.29;99983.72;5095419;28;20093;-72
2021/06/24 10:48:44;;;;;;;18.48;5.10;;;;;;;36.45;27.30;100002.47;5095528;28;20047;-72
2021/06/24 10:51:14;;;;;;;17.88;4.25;;;;;;;36.60;26.64;99997.84;5094163;28;20048;-72
2021/06/24 10:53:50;;;;;;;22.75;4.90;;;;;;;36.71;26.88;100001.53;5095513;28;20056;-72
2021/06/24 10:56:43;;;;;;;17.15;4.72;;;;;;;36.83;26.34;99999.38;5095137;28;20044;-72
2021/06/24 10:59:31;;;;;;;18.30;4.78;;;;;;;37.02;26.27;99998.91;5094947;28;20050;-72
2021/06/24 11:02:12;;;;;;;16.48;4.57;;;;;;;37.04;26.34;99991.09;5094899;28;20048;-73
2021/06/24 11:04:43;;;;;;;17.98;4.57;;;;;;;37.14;26.17;99997.53;5095237;28;20130;-72
2021/06/24 11:07:34;;;;;;;19.70;5.45;;;;;;;36.93;26.30;99991.06;5094089;28;20041;-72
2021/06/24 11:10:30;;;;;;;21.88;5.65;;;;;;;36.82;26.39;99999.63;5094973;28;20072;-72
2021/06/24 11:13:04;;;;;;;21.33;6.10;;;;;;;36.94;26.40;99995.53;5094680;28;20449;-72
2021/06/24 11:15:48;;;;;;;18.75;5.30;;;;;;;37.00;26.52;99990.84;5094661;28;20098;-70
2021/06/24 11:18:56;;;;;;;17.77;5.15;;;;;;;37.05;26.37;100001.94;5094604;28;20055;-70
2021/06/24 11:21:53;;;;;;;25.48;5.45;;;;;;;37.17;26.02;99990.63;5094734;28;20052;-70
2021/06/24 11:24:29;;;;;;;21.00;5.43;;;;;;;37.17;25.80;99987.84;5094659;28;20048;-70
2021/06/24 11:27:02;;;;;;;20.70;5.63;;;;;;;37.25;26.22;99993.69;5094582;28;20075;-70
2021/06/24 11:29:43;;;;;;;15.10;4.80;;;;;;;37.34;25.87;99985.66;5094661;28;20040;-70